To NAV CANADA Home Page Login to a new session Search on AWWS site Feedback and Comments Disclaimer Vers la page française équivalente Tips FAQ What's new on the site To the Forecasts and Observations / NOTAM section To "File a Flight Plan" website Publications and other links Update of the User's profile FIC Telephone Numbers My Weather Data Folder Route Weather Data Regional Weather Data Local Weather Data To the Forecasts and Observations / NOTAM section
Request Generated 07/25/2016 at 17:47:36 UTC . Weather information available at that time is displayed.

METAR/TAF

ST. ANTHONY/NL    (show WxCam)

METAR CYAY 251700Z AUTO 26016KT 9SM BKN028 OVC080 16/10 A2984 RMK
SLP108 DENSITY ALT 300FT=
METAR CYAY 251600Z AUTO 26014G19KT 9SM BKN028 BKN060 OVC071 16/10
A2984 RMK SLP106 DENSITY ALT 300FT=
METAR CYAY 251500Z AUTO 26014KT 9SM OVC026 15/10 A2984 RMK SLP106
DENSITY ALT 200FT=

TAF CYAY 251341Z 2514/2602 27010G20KT P6SM BKN025 TEMPO 2514/2516
BKN020
FM251600 27010G20KT P6SM BKN040
BECMG 2516/2518 27015G25KT
BECMG 2523/2601 27008KT
RMK FCST BASED ON AUTO OBS. NXT FCST BY 252000Z=
Your time UTC time
Weather data provided by Environment Canada and NAV CANADA